sensor_id;sensor_type;location;lat;lon;timestamp;pressure;altitude;pressure_sealevel;temperature;humidity
36630;BME280;36256;42.154;23.002;2023-07-13T00:00:12;97451.00;;;21.25;100.00
36630;BME280;36256;42.154;23.002;2023-07-13T00:02:42;97457.22;;;21.29;100.00
36630;BME280;36256;42.154;23.002;2023-07-13T00:05:09;97456.19;;;21.32;100.00
36630;BME280;36256;42.154;23.002;2023-07-13T00:07:36;97449.69;;;21.37;100.00
36630;BME280;36256;42.154;23.002;2023-07-13T00:10:04;97461.34;;;21.39;100.00
36630;BME280;36256;42.154;23.002;2023-07-13T00:12:34;97459.28;;;21.34;100.00
36630;BME280;36256;42.154;23.002;2023-07-13T00:15:05;97458.78;;;21.30;100.00
36630;BME280;36256;42.154;23.002;2023-07-13T00:17:33;97456.97;;;21.22;100.00
36630;BME280;36256;42.154;23.002;2023-07-13T00:19:59;97454.91;;;21.11;100.00
36630;BME280;36256;42.154;23.002;2023-07-13T00:22:26;97457.50;;;20.98;100.00
36630;BME280;36256;42.154;23.002;2023-07-13T00:24:54;97452.06;;;20.83;100.00
36630;BME280;36256;42.154;23.002;2023-07-13T00:27:24;97458.28;;;20.71;100.00
36630;BME280;36256;42.154;23.002;2023-07-13T00:29:56;97463.75;;;20.63;100.00
36630;BME280;36256;42.154;23.002;2023-07-13T00:32:23;97458.53;;;20.56;100.00
36630;BME280;36256;42.154;23.002;2023-07-13T00:34:52;97457.22;;;20.41;100.00
36630;BME280;36256;42.154;23.002;2023-07-13T00:37:19;97461.38;;;20.40;100.00
36630;BME280;36256;42.154;23.002;2023-07-13T00:39:46;97452.56;;;20.38;100.00
36630;BME280;36256;42.154;23.002;2023-07-13T00:42:12;97455.13;;;20.24;100.00
36630;BME280;36256;42.154;23.002;2023-07-13T00:44:39;97446.56;;;20.19;100.00
36630;BME280;36256;42.154;23.002;2023-07-13T00:47:06;97434.88;;;20.11;100.00
36630;BME280;36256;42.154;23.002;2023-07-13T00:49:35;97449.44;;;20.24;100.00
36630;BME280;36256;42.154;23.002;2023-07-13T00:52:05;97451.25;;;20.39;100.00
36630;BME280;36256;42.154;23.002;2023-07-13T00:54:37;97456.19;;;20.44;100.00
36630;BME280;36256;42.154;23.002;2023-07-13T00:57:08;97447.91;;;20.46;100.00
36630;BME280;36256;42.154;23.002;2023-07-13T00:59:36;97451.53;;;20.41;100.00
36630;BME280;36256;42.154;23.002;2023-07-13T01:02:06;97456.72;;;20.48;100.00
36630;BME280;36256;42.154;23.002;2023-07-13T01:04:33;97453.63;;;20.46;100.00
36630;BME280;36256;42.154;23.002;2023-07-13T01:07:00;97455.16;;;20.47;100.00
36630;BME280;36256;42.154;23.002;2023-07-13T01:09:27;97454.38;;;20.52;100.00
36630;BME280;36256;42.154;23.002;2023-07-13T01:11:54;97458.81;;;20.58;100.00
36630;BME280;36256;42.154;23.002;2023-07-13T01:14:21;97459.31;;;20.51;100.00
36630;BME280;36256;42.154;23.002;2023-07-13T01:16:49;97459.84;;;20.50;100.00
36630;BME280;36256;42.154;23.002;2023-07-13T01:19:28;97457.22;;;20.41;100.00
36630;BME280;36256;42.154;23.002;2023-07-13T01:24:40;97459.03;;;20.49;100.00
36630;BME280;36256;42.154;23.002;2023-07-13T01:27:10;97452.31;;;20.58;100.00
36630;BME280;36256;42.154;23.002;2023-07-13T01:29:39;97460.38;;;20.65;100.00
36630;BME280;36256;42.154;23.002;2023-07-13T01:32:10;97455.94;;;20.64;100.00
36630;BME280;36256;42.154;23.002;2023-07-13T01:34:37;97465.00;;;20.68;100.00
36630;BME280;36256;42.154;23.002;2023-07-13T01:37:05;97461.38;;;20.62;100.00
36630;BME280;36256;42.154;23.002;2023-07-13T01:39:31;97467.09;;;20.62;100.00
36630;BME280;36256;42.154;23.002;2023-07-13T01:41:59;97468.66;;;20.63;100.00
36630;BME280;36256;42.154;23.002;2023-07-13T01:44:26;97466.06;;;20.54;100.00
36630;BME280;36256;42.154;23.002;2023-07-13T01:46:53;97468.41;;;20.66;100.00
36630;BME280;36256;42.154;23.002;2023-07-13T01:49:20;97474.63;;;20.65;100.00
36630;BME280;36256;42.154;23.002;2023-07-13T01:51:46;97470.72;;;20.68;100.00
36630;BME280;36256;42.154;23.002;2023-07-13T01:54:13;97474.38;;;20.63;100.00
36630;BME280;36256;42.154;23.002;2023-07-13T01:56:40;97476.69;;;20.59;100.00
36630;BME280;36256;42.154;23.002;2023-07-13T01:59:08;97470.19;;;20.64;100.00
36630;BME280;36256;42.154;23.002;2023-07-13T02:01:35;97471.78;;;20.65;100.00
36630;BME280;36256;42.154;23.002;2023-07-13T02:04:03;97476.16;;;20.60;100.00
36630;BME280;36256;42.154;23.002;2023-07-13T02:06:29;97470.47;;;20.55;100.00
36630;BME280;36256;42.154;23.002;2023-07-13T02:08:58;97468.88;;;20.37;100.00
36630;BME280;36256;42.154;23.002;2023-07-13T02:11:25;97471.22;;;20.33;100.00
36630;BME280;36256;42.154;23.002;2023-07-13T02:14:00;97454.31;;;20.18;100.00
36630;BME280;36256;42.154;23.002;2023-07-13T02:16:30;97474.81;;;20.22;100.00
36630;BME280;36256;42.154;23.002;2023-07-13T02:18:57;97468.56;;;20.18;100.00
36630;BME280;36256;42.154;23.002;2023-07-13T02:21:24;97479.44;;;20.14;100.00
36630;BME280;36256;42.154;23.002;2023-07-13T02:23:51;97472.13;;;20.02;100.00
36630;BME280;36256;42.154;23.002;2023-07-13T02:26:19;97464.09;;;20.01;100.00
36630;BME280;36256;42.154;23.002;2023-07-13T02:28:45;97471.13;;;20.05;100.00
36630;BME280;36256;42.154;23.002;2023-07-13T02:31:14;97468.78;;;20.09;100.00
36630;BME280;36256;42.154;23.002;2023-07-13T02:33:42;97469.81;;;20.06;100.00
36630;BME280;36256;42.154;23.002;2023-07-13T02:36:10;97476.81;;;20.05;100.00
36630;BME280;36256;42.154;23.002;2023-07-13T02:38:37;97477.59;;;20.06;100.00
36630;BME280;36256;42.154;23.002;2023-07-13T02:41:06;97478.56;;;19.92;100.00
36630;BME280;36256;42.154;23.002;2023-07-13T02:43:33;97476.97;;;19.80;100.00
36630;BME280;36256;42.154;23.002;2023-07-13T02:46:01;97465.78;;;19.65;100.00
36630;BME280;36256;42.154;23.002;2023-07-13T02:48:34;97475.66;;;19.70;100.00
36630;BME280;36256;42.154;23.002;2023-07-13T02:51:01;97490.16;;;19.77;100.00
36630;BME280;36256;42.154;23.002;2023-07-13T02:53:28;97497.38;;;19.67;100.00
36630;BME280;36256;42.154;23.002;2023-07-13T02:55:55;97500.75;;;19.71;100.00
36630;BME280;36256;42.154;23.002;2023-07-13T02:58:21;97500.28;;;19.78;100.00
36630;BME280;36256;42.154;23.002;2023-07-13T03:00:48;97492.00;;;19.80;100.00
36630;BME280;36256;42.154;23.002;2023-07-13T03:03:16;97499.47;;;19.72;100.00
36630;BME280;36256;42.154;23.002;2023-07-13T03:05:44;97496.66;;;19.83;100.00
36630;BME280;36256;42.154;23.002;2023-07-13T03:08:17;97492.81;;;19.86;100.00
36630;BME280;36256;42.154;23.002;2023-07-13T03:10:44;97498.69;;;19.72;100.00
36630;BME280;36256;42.154;23.002;2023-07-13T03:13:11;97486.03;;;19.78;100.00
36630;BME280;36256;42.154;23.002;2023-07-13T03:15:38;97503.19;;;19.89;100.00
36630;BME280;36256;42.154;23.002;2023-07-13T03:18:05;97502.66;;;19.96;100.00
36630;BME280;36256;42.154;23.002;2023-07-13T03:20:33;97501.34;;;19.81;100.00
36630;BME280;36256;42.154;23.002;2023-07-13T03:23:00;97504.56;;;19.57;100.00
36630;BME280;36256;42.154;23.002;2023-07-13T03:25:27;97501.47;;;19.61;100.00
36630;BME280;36256;42.154;23.002;2023-07-13T03:27:54;97513.91;;;19.63;100.00
36630;BME280;36256;42.154;23.002;2023-07-13T03:30:21;97512.84;;;19.55;100.00
36630;BME280;36256;42.154;23.002;2023-07-13T03:32:48;97512.31;;;19.51;100.00
36630;BME280;36256;42.154;23.002;2023-07-13T03:35:15;97515.44;;;19.53;100.00
36630;BME280;36256;42.154;23.002;2023-07-13T03:37:42;97515.16;;;19.51;100.00
36630;BME280;36256;42.154;23.002;2023-07-13T03:40:10;97514.63;;;19.52;100.00
36630;BME280;36256;42.154;23.002;2023-07-13T03:42:37;97511.28;;;19.54;100.00
36630;BME280;36256;42.154;23.002;2023-07-13T03:45:04;97520.09;;;19.56;100.00
36630;BME280;36256;42.154;23.002;2023-07-13T03:47:31;97514.94;;;19.60;100.00
36630;BME280;36256;42.154;23.002;2023-07-13T03:49:58;97514.94;;;19.60;100.00
36630;BME280;36256;42.154;23.002;2023-07-13T03:52:25;97515.16;;;19.51;100.00
36630;BME280;36256;42.154;23.002;2023-07-13T03:54:52;97511.28;;;19.54;100.00
36630;BME280;36256;42.154;23.002;2023-07-13T03:57:19;97506.63;;;19.51;100.00
36630;BME280;36256;42.154;23.002;2023-07-13T03:59:45;97504.25;;;19.44;100.00
36630;BME280;36256;42.154;23.002;2023-07-13T04:02:12;97502.19;;;19.50;100.00
36630;BME280;36256;42.154;23.002;2023-07-13T04:04:39;97514.72;;;19.64;100.00
36630;BME280;36256;42.154;23.002;2023-07-13T04:07:07;97510.09;;;19.72;100.00
36630;BME280;36256;42.154;23.002;2023-07-13T04:09:35;97508.56;;;19.82;100.00
36630;BME280;36256;42.154;23.002;2023-07-13T04:12:02;97516.59;;;19.83;100.00
36630;BME280;36256;42.154;23.002;2023-07-13T04:14:28;97517.41;;;19.89;100.00
36630;BME280;36256;42.154;23.002;2023-07-13T04:16:55;97513.00;;;19.88;100.00
36630;BME280;36256;42.154;23.002;2023-07-13T04:19:23;97512.53;;;19.95;100.00
36630;BME280;36256;42.154;23.002;2023-07-13T04:21:49;97512.00;;;20.02;100.00
36630;BME280;36256;42.154;23.002;2023-07-13T04:24:16;97516.19;;;20.07;100.00
36630;BME280;36256;42.154;23.002;2023-07-13T04:26:43;97520.09;;;20.15;100.00
36630;BME280;36256;42.154;23.002;2023-07-13T04:29:10;97524.25;;;20.19;100.00
36630;BME280;36256;42.154;23.002;2023-07-13T04:31:36;97518.53;;;20.14;100.00
36630;BME280;36256;42.154;23.002;2023-07-13T04:34:03;97523.44;;;20.13;100.00
36630;BME280;36256;42.154;23.002;2023-07-13T04:36:30;97521.66;;;20.16;100.00
36630;BME280;36256;42.154;23.002;2023-07-13T04:38:57;97520.88;;;20.15;100.00
36630;BME280;36256;42.154;23.002;2023-07-13T04:41:23;97518.28;;;20.17;100.00
36630;BME280;36256;42.154;23.002;2023-07-13T04:43:50;97519.38;;;20.25;100.00
36630;BME280;36256;42.154;23.002;2023-07-13T04:46:18;97515.28;;;20.38;100.00
36630;BME280;36256;42.154;23.002;2023-07-13T04:48:46;97506.97;;;20.45;100.00
36630;BME280;36256;42.154;23.002;2023-07-13T04:51:12;97519.47;;;20.59;99.89
36630;BME280;36256;42.154;23.002;2023-07-13T04:53:39;97528.78;;;20.65;100.00
36630;BME280;36256;42.154;23.002;2023-07-13T04:56:06;97530.84;;;20.70;100.00
36630;BME280;36256;42.154;23.002;2023-07-13T04:58:33;97531.13;;;20.72;100.00
36630;BME280;36256;42.154;23.002;2023-07-13T05:01:05;97531.13;;;20.83;100.00
36630;BME280;36256;42.154;23.002;2023-07-13T05:03:33;97532.69;;;20.89;99.21
36630;BME280;36256;42.154;23.002;2023-07-13T05:06:05;97532.44;;;20.93;100.00
36630;BME280;36256;42.154;23.002;2023-07-13T05:08:32;97523.38;;;21.00;100.00
36630;BME280;36256;42.154;23.002;2023-07-13T05:11:00;97530.66;;;21.12;100.00
36630;BME280;36256;42.154;23.002;2023-07-13T05:13:27;97527.78;;;21.23;99.42
36630;BME280;36256;42.154;23.002;2023-07-13T05:16:03;97526.22;;;21.33;98.95
36630;BME280;36256;42.154;23.002;2023-07-13T05:18:31;97526.47;;;21.46;95.01
36630;BME280;36256;42.154;23.002;2023-07-13T05:21:03;97522.84;;;21.51;93.04
36630;BME280;36256;42.154;23.002;2023-07-13T05:23:31;97525.91;;;21.64;94.23
36630;BME280;36256;42.154;23.002;2023-07-13T05:25:59;97527.19;;;21.74;94.04
36630;BME280;36256;42.154;23.002;2023-07-13T05:28:27;97517.84;;;21.68;93.70
36630;BME280;36256;42.154;23.002;2023-07-13T05:30:55;97527.19;;;21.85;95.75
36630;BME280;36256;42.154;23.002;2023-07-13T05:33:23;97513.66;;;21.80;96.24
36630;BME280;36256;42.154;23.002;2023-07-13T05:35:50;97518.09;;;21.87;96.71
36630;BME280;36256;42.154;23.002;2023-07-13T05:38:17;97530.75;;;22.03;94.56
36630;BME280;36256;42.154;23.002;2023-07-13T05:40:45;97526.03;;;22.11;93.31
36630;BME280;36256;42.154;23.002;2023-07-13T05:43:12;97527.09;;;22.13;93.85
36630;BME280;36256;42.154;23.002;2023-07-13T05:45:39;97533.75;;;22.27;93.02
36630;BME280;36256;42.154;23.002;2023-07-13T05:48:06;97539.19;;;22.36;93.63
36630;BME280;36256;42.154;23.002;2023-07-13T05:50:32;97541.31;;;22.76;94.13
36630;BME280;36256;42.154;23.002;2023-07-13T05:52:59;97545.78;;;23.36;91.00
36630;BME280;36256;42.154;23.002;2023-07-13T05:55:26;97537.88;;;23.96;84.46
36630;BME280;36256;42.154;23.002;2023-07-13T05:57:52;97547.75;;;24.62;81.74
36630;BME280;36256;42.154;23.002;2023-07-13T06:00:19;97548.69;;;25.21;78.23
36630;BME280;36256;42.154;23.002;2023-07-13T06:02:46;97552.16;;;25.77;73.24
36630;BME280;36256;42.154;23.002;2023-07-13T06:05:13;97540.88;;;26.44;69.98
36630;BME280;36256;42.154;23.002;2023-07-13T06:07:41;97544.09;;;27.01;67.74
36630;BME280;36256;42.154;23.002;2023-07-13T06:10:09;97545.72;;;27.43;67.27
36630;BME280;36256;42.154;23.002;2023-07-13T06:12:35;97545.59;;;27.77;61.92
36630;BME280;36256;42.154;23.002;2023-07-13T06:15:03;97533.25;;;27.48;61.84
36630;BME280;36256;42.154;23.002;2023-07-13T06:17:30;97541.25;;;27.42;64.46
36630;BME280;36256;42.154;23.002;2023-07-13T06:19:57;97545.56;;;27.49;62.20
36630;BME280;36256;42.154;23.002;2023-07-13T06:22:23;97547.78;;;27.63;61.14
36630;BME280;36256;42.154;23.002;2023-07-13T06:24:51;97544.81;;;27.97;62.30
36630;BME280;36256;42.154;23.002;2023-07-13T06:27:18;97556.19;;;28.31;63.05
36630;BME280;36256;42.154;23.002;2023-07-13T06:29:45;97549.88;;;28.68;61.04
36630;BME280;36256;42.154;23.002;2023-07-13T06:32:11;97539.19;;;29.06;59.65
36630;BME280;36256;42.154;23.002;2023-07-13T06:34:38;97540.25;;;29.31;58.79
36630;BME280;36256;42.154;23.002;2023-07-13T06:37:08;97540.44;;;29.41;57.75
36630;BME280;36256;42.154;23.002;2023-07-13T06:39:35;97538.16;;;29.55;57.33
36630;BME280;36256;42.154;23.002;2023-07-13T06:42:02;97517.69;;;29.60;54.90
36630;BME280;36256;42.154;23.002;2023-07-13T06:44:29;97527.19;;;29.76;55.91
36630;BME280;36256;42.154;23.002;2023-07-13T06:46:55;97520.78;;;30.00;55.32
36630;BME280;36256;42.154;23.002;2023-07-13T06:49:22;97511.50;;;30.09;52.67
36630;BME280;36256;42.154;23.002;2023-07-13T06:51:49;97509.94;;;30.08;53.86
36630;BME280;36256;42.154;23.002;2023-07-13T06:54:16;97494.13;;;30.16;54.85
36630;BME280;36256;42.154;23.002;2023-07-13T06:56:42;97496.44;;;30.18;52.93
36630;BME280;36256;42.154;23.002;2023-07-13T06:59:09;97488.34;;;30.09;53.21
36630;BME280;36256;42.154;23.002;2023-07-13T07:01:36;97486.19;;;30.32;51.86
36630;BME280;36256;42.154;23.002;2023-07-13T07:04:06;97478.81;;;30.46;52.24
36630;BME280;36256;42.154;23.002;2023-07-13T07:06:33;97482.41;;;30.54;51.93
36630;BME280;36256;42.154;23.002;2023-07-13T07:08:59;97483.53;;;30.66;51.61
36630;BME280;36256;42.154;23.002;2023-07-13T07:11:26;97472.63;;;30.89;53.32
36630;BME280;36256;42.154;23.002;2023-07-13T07:13:53;97473.47;;;30.75;51.15
36630;BME280;36256;42.154;23.002;2023-07-13T07:16:21;97479.97;;;30.83;51.97
36630;BME280;36256;42.154;23.002;2023-07-13T07:18:47;97471.41;;;31.00;49.85
36630;BME280;36256;42.154;23.002;2023-07-13T07:21:14;97473.25;;;31.13;49.21
36630;BME280;36256;42.154;23.002;2023-07-13T07:23:42;97470.53;;;31.15;50.31
36630;BME280;36256;42.154;23.002;2023-07-13T07:26:09;97473.25;;;31.13;50.29
36630;BME280;36256;42.154;23.002;2023-07-13T07:28:37;97471.69;;;31.12;48.09
36630;BME280;36256;42.154;23.002;2023-07-13T07:31:06;97457.78;;;30.85;47.17
36630;BME280;36256;42.154;23.002;2023-07-13T07:33:36;97444.22;;;30.56;47.06
36630;BME280;36256;42.154;23.002;2023-07-13T07:36:03;97451.53;;;30.57;48.95
36630;BME280;36256;42.154;23.002;2023-07-13T07:38:33;97447.91;;;30.88;47.59
36630;BME280;36256;42.154;23.002;2023-07-13T07:41:03;97449.53;;;31.07;50.18
36630;BME280;36256;42.154;23.002;2023-07-13T07:43:33;97447.06;;;31.28;48.51
36630;BME280;36256;42.154;23.002;2023-07-13T07:46:00;97441.75;;;31.41;48.86
36630;BME280;36256;42.154;23.002;2023-07-13T07:48:29;97448.19;;;31.57;46.60
36630;BME280;36256;42.154;23.002;2023-07-13T07:50:56;97430.94;;;31.59;45.28
36630;BME280;36256;42.154;23.002;2023-07-13T07:53:22;97437.34;;;31.74;46.68
36630;BME280;36256;42.154;23.002;2023-07-13T07:55:49;97444.16;;;31.94;48.76
36630;BME280;36256;42.154;23.002;2023-07-13T07:58:19;97428.59;;;31.82;46.63
36630;BME280;36256;42.154;23.002;2023-07-13T08:00:48;97430.47;;;31.87;47.04
36630;BME280;36256;42.154;23.002;2023-07-13T08:03:18;97431.53;;;31.99;47.96
36630;BME280;36256;42.154;23.002;2023-07-13T08:05:47;97445.00;;;32.04;49.34
36630;BME280;36256;42.154;23.002;2023-07-13T08:08:35;97431.66;;;31.84;48.10
36630;BME280;36256;42.154;23.002;2023-07-13T08:11:03;97418.16;;;31.79;48.44
36630;BME280;36256;42.154;23.002;2023-07-13T08:13:50;97418.16;;;31.79;45.73
36630;BME280;36256;42.154;23.002;2023-07-13T08:16:20;97397.19;;;31.88;48.20
36630;BME280;36256;42.154;23.002;2023-07-13T08:18:49;97391.47;;;31.81;46.79
36630;BME280;36256;42.154;23.002;2023-07-13T08:21:15;97403.69;;;31.96;45.19
36630;BME280;36256;42.154;23.002;2023-07-13T08:23:42;97401.28;;;32.02;47.65
36630;BME280;36256;42.154;23.002;2023-07-13T08:26:09;97403.41;;;32.19;45.66
36630;BME280;36256;42.154;23.002;2023-07-13T08:28:36;97395.25;;;32.25;46.27
36630;BME280;36256;42.154;23.002;2023-07-13T08:31:04;97405.03;;;32.29;48.34
36630;BME280;36256;42.154;23.002;2023-07-13T08:33:31;97393.88;;;32.09;45.68
36630;BME280;36256;42.154;23.002;2023-07-13T08:35:58;97403.41;;;32.19;48.50
36630;BME280;36256;42.154;23.002;2023-07-13T08:38:25;97405.19;;;32.31;50.99
36630;BME280;36256;42.154;23.002;2023-07-13T08:40:56;97393.78;;;32.33;46.73
36630;BME280;36256;42.154;23.002;2023-07-13T08:43:28;97387.59;;;32.29;45.97
36630;BME280;36256;42.154;23.002;2023-07-13T08:46:34;97383.06;;;32.36;48.96
36630;BME280;36256;42.154;23.002;2023-07-13T08:51:42;97373.75;;;32.55;46.66
36630;BME280;36256;42.154;23.002;2023-07-13T08:54:31;97377.00;;;32.59;46.26
36630;BME280;36256;42.154;23.002;2023-07-13T08:57:05;97367.22;;;32.64;45.33
36630;BME280;36256;42.154;23.002;2023-07-13T08:59:36;97359.50;;;32.76;44.39
36630;BME280;36256;42.154;23.002;2023-07-13T09:02:27;97377.63;;;32.93;48.95
36630;BME280;36256;42.154;23.002;2023-07-13T09:05:04;97380.59;;;33.03;50.51
36630;BME280;36256;42.154;23.002;2023-07-13T09:08:02;97367.81;;;33.15;44.57
36630;BME280;36256;42.154;23.002;2023-07-13T09:10:32;97359.72;;;33.23;48.11
36630;BME280;36256;42.154;23.002;2023-07-13T09:16:02;97327.41;;;33.29;42.64
36630;BME280;36256;42.154;23.002;2023-07-13T09:18:33;97330.94;;;33.37;45.55
36630;BME280;36256;42.154;23.002;2023-07-13T09:26:58;97327.97;;;33.73;45.33
36630;BME280;36256;42.154;23.002;2023-07-13T09:29:31;97329.81;;;33.88;47.27
36630;BME280;36256;42.154;23.002;2023-07-13T09:32:07;97330.28;;;34.04;47.28
36630;BME280;36256;42.154;23.002;2023-07-13T09:34:36;97315.41;;;34.09;42.28
36630;BME280;36256;42.154;23.002;2023-07-13T09:37:03;97311.41;;;34.24;43.89
36630;BME280;36256;42.154;23.002;2023-07-13T09:39:37;97315.25;;;34.17;41.95
36630;BME280;36256;42.154;23.002;2023-07-13T09:44:49;97290.13;;;34.12;41.44
36630;BME280;36256;42.154;23.002;2023-07-13T09:47:25;97294.72;;;34.15;39.89
36630;BME280;36256;42.154;23.002;2023-07-13T09:49:58;97299.75;;;34.24;41.96
36630;BME280;36256;42.154;23.002;2023-07-13T09:52:43;97301.25;;;34.34;42.20
36630;BME280;36256;42.154;23.002;2023-07-13T09:55:37;97305.22;;;34.58;47.61
36630;BME280;36256;42.154;23.002;2023-07-13T09:58:09;97293.53;;;34.67;44.12
36630;BME280;36256;42.154;23.002;2023-07-13T10:00:37;97287.50;;;34.75;40.20
36630;BME280;36256;42.154;23.002;2023-07-13T10:03:31;97296.41;;;34.77;38.68
36630;BME280;36256;42.154;23.002;2023-07-13T10:06:12;97301.28;;;34.84;42.15
36630;BME280;36256;42.154;23.002;2023-07-13T10:08:40;97288.81;;;34.93;43.00
36630;BME280;36256;42.154;23.002;2023-07-13T10:11:13;97284.38;;;34.92;37.76
36630;BME280;36256;42.154;23.002;2023-07-13T10:13:54;97308.28;;;35.00;48.15
36630;BME280;36256;42.154;23.002;2023-07-13T10:16:24;97305.81;;;35.06;44.60
36630;BME280;36256;42.154;23.002;2023-07-13T10:18:55;97299.00;;;35.13;43.24
36630;BME280;36256;42.154;23.002;2023-07-13T10:21:28;97285.63;;;35.20;38.66
36630;BME280;36256;42.154;23.002;2023-07-13T10:24:22;97282.06;;;35.21;36.33
36630;BME280;36256;42.154;23.002;2023-07-13T10:27:17;97270.50;;;35.33;36.33
36630;BME280;36256;42.154;23.002;2023-07-13T10:29:52;97268.25;;;35.43;36.39
36630;BME280;36256;42.154;23.002;2023-07-13T10:32:21;97267.78;;;35.68;37.10
36630;BME280;36256;42.154;23.002;2023-07-13T10:34:50;97262.19;;;35.60;34.93
36630;BME280;36256;42.154;23.002;2023-07-13T10:37:25;97262.81;;;35.59;36.05
36630;BME280;36256;42.154;23.002;2023-07-13T10:39:55;97268.66;;;35.59;41.17
36630;BME280;36256;42.154;23.002;2023-07-13T10:42:35;97256.34;;;35.60;35.45
36630;BME280;36256;42.154;23.002;2023-07-13T10:45:15;97258.75;;;35.64;38.60
36630;BME280;36256;42.154;23.002;2023-07-13T10:47:44;97244.84;;;35.74;35.73
36630;BME280;36256;42.154;23.002;2023-07-13T10:50:21;97239.81;;;35.86;41.73
36630;BME280;36256;42.154;23.002;2023-07-13T10:52:50;97246.63;;;36.00;37.77
36630;BME280;36256;42.154;23.002;2023-07-13T11:03:32;97232.78;;;36.00;39.65
36630;BME280;36256;42.154;23.002;2023-07-13T11:07:00;97229.50;;;36.06;37.59
36630;BME280;36256;42.154;23.002;2023-07-13T11:12:02;97222.94;;;36.17;36.92
36630;BME280;36256;42.154;23.002;2023-07-13T11:14:34;97219.53;;;36.32;36.41
36630;BME280;36256;42.154;23.002;2023-07-13T11:20:10;97229.81;;;36.33;41.06
36630;BME280;36256;42.154;23.002;2023-07-13T11:22:51;97226.09;;;36.21;39.42
36630;BME280;36256;42.154;23.002;2023-07-13T11:25:32;97221.69;;;36.20;44.18
36630;BME280;36256;42.154;23.002;2023-07-13T11:35:44;97200.31;;;36.29;38.97
36630;BME280;36256;42.154;23.002;2023-07-13T11:38:24;97194.75;;;36.33;38.72
36630;BME280;36256;42.154;23.002;2023-07-13T11:40:55;97187.38;;;36.32;38.24
36630;BME280;36256;42.154;23.002;2023-07-13T11:43:23;97182.81;;;36.41;39.24
36630;BME280;36256;42.154;23.002;2023-07-13T11:45:50;97186.41;;;36.51;36.27
36630;BME280;36256;42.154;23.002;2023-07-13T11:48:27;97183.88;;;36.45;37.72
36630;BME280;36256;42.154;23.002;2023-07-13T11:51:00;97180.50;;;36.39;38.04
36630;BME280;36256;42.154;23.002;2023-07-13T11:53:35;97174.66;;;36.39;36.73
36630;BME280;36256;42.154;23.002;2023-07-13T11:56:03;97162.47;;;36.31;36.43
36630;BME280;36256;42.154;23.002;2023-07-13T11:58:32;97162.97;;;36.39;37.08
36630;BME280;36256;42.154;23.002;2023-07-13T12:01:01;97163.28;;;36.43;35.90
36630;BME280;36256;42.154;23.002;2023-07-13T12:03:33;97140.28;;;36.49;37.02
36630;BME280;36256;42.154;23.002;2023-07-13T12:06:03;97146.84;;;36.38;37.13
36630;BME280;36256;42.154;23.002;2023-07-13T12:08:38;97161.75;;;36.42;37.69
36630;BME280;36256;42.154;23.002;2023-07-13T12:11:17;97142.31;;;36.47;35.67
36630;BME280;36256;42.154;23.002;2023-07-13T12:13:46;97132.00;;;36.57;35.59
36630;BME280;36256;42.154;23.002;2023-07-13T12:16:36;97137.59;;;36.65;36.31
36630;BME280;36256;42.154;23.002;2023-07-13T12:19:03;97138.22;;;36.63;36.22
36630;BME280;36256;42.154;23.002;2023-07-13T12:21:32;97131.63;;;36.63;35.61
36630;BME280;36256;42.154;23.002;2023-07-13T12:24:00;97117.00;;;36.74;35.49
36630;BME280;36256;42.154;23.002;2023-07-13T12:26:32;97117.72;;;36.86;34.67
36630;BME280;36256;42.154;23.002;2023-07-13T12:29:01;97109.81;;;37.00;35.81
36630;BME280;36256;42.154;23.002;2023-07-13T12:31:43;97116.97;;;36.97;34.56
36630;BME280;36256;42.154;23.002;2023-07-13T12:34:12;97116.31;;;36.99;34.56
36630;BME280;36256;42.154;23.002;2023-07-13T12:37:08;97120.78;;;37.00;37.78
36630;BME280;36256;42.154;23.002;2023-07-13T12:39:48;97121.28;;;36.96;35.70
36630;BME280;36256;42.154;23.002;2023-07-13T12:44:47;97114.13;;;37.11;36.17
36630;BME280;36256;42.154;23.002;2023-07-13T12:47:14;97097.56;;;37.16;35.44
36630;BME280;36256;42.154;23.002;2023-07-13T12:49:47;97120.09;;;37.13;44.67
36630;BME280;36256;42.154;23.002;2023-07-13T12:52:16;97124.09;;;36.94;45.99
36630;BME280;36256;42.154;23.002;2023-07-13T12:54:55;97116.47;;;36.78;37.84
36630;BME280;36256;42.154;23.002;2023-07-13T12:57:38;97091.06;;;36.69;33.72
36630;BME280;36256;42.154;23.002;2023-07-13T13:00:21;97101.75;;;36.64;34.32
36630;BME280;36256;42.154;23.002;2023-07-13T13:02:53;97106.31;;;36.67;38.61
36630;BME280;36256;42.154;23.002;2023-07-13T13:05:31;97101.47;;;36.72;39.82
36630;BME280;36256;42.154;23.002;2023-07-13T13:07:59;97097.16;;;36.73;39.05
36630;BME280;36256;42.154;23.002;2023-07-13T13:10:27;97100.97;;;36.75;39.73
36630;BME280;36256;42.154;23.002;2023-07-13T13:12:54;97087.63;;;36.72;36.72
36630;BME280;36256;42.154;23.002;2023-07-13T13:15:20;97092.19;;;36.75;39.92
36630;BME280;36256;42.154;23.002;2023-07-13T13:17:49;97089.53;;;36.68;37.10
36630;BME280;36256;42.154;23.002;2023-07-13T13:20:20;97091.81;;;36.69;40.34
36630;BME280;36256;42.154;23.002;2023-07-13T13:22:48;97083.69;;;36.68;38.65
36630;BME280;36256;42.154;23.002;2023-07-13T13:25:15;97082.03;;;36.76;38.12
36630;BME280;36256;42.154;23.002;2023-07-13T13:27:43;97090.69;;;36.74;39.58
36630;BME280;36256;42.154;23.002;2023-07-13T13:30:16;97094.38;;;36.75;42.36
36630;BME280;36256;42.154;23.002;2023-07-13T13:32:45;97095.63;;;36.72;41.52
36630;BME280;36256;42.154;23.002;2023-07-13T13:35:16;97099.56;;;36.65;42.49
36630;BME280;36256;42.154;23.002;2023-07-13T13:37:44;97095.66;;;36.60;40.38
36630;BME280;36256;42.154;23.002;2023-07-13T13:40:17;97089.31;;;36.52;40.22